createdAt,value
2023-03-17T00:01:54.725Z,61.25
2023-03-17T00:04:24.326Z,56.75
2023-03-17T00:06:51.889Z,54.50
2023-03-17T00:09:20.937Z,72.50
2023-03-17T00:11:48.022Z,66.25
2023-03-17T00:14:15.453Z,66.00
2023-03-17T00:16:44.716Z,67.50
2023-03-17T00:19:17.296Z,65.50
2023-03-17T00:21:46.155Z,53.50
2023-03-17T00:24:15.204Z,53.00
2023-03-17T00:26:43.397Z,41.75
2023-03-17T00:29:11.222Z,56.25
2023-03-17T00:31:39.626Z,56.00
2023-03-17T00:34:08.188Z,45.50
2023-03-17T00:36:35.750Z,45.25
2023-03-17T00:39:03.696Z,53.25
2023-03-17T00:41:30.969Z,64.50
2023-03-17T00:43:58.900Z,88.75
2023-03-17T00:46:28.822Z,85.00
2023-03-17T00:48:56.649Z,80.50
2023-03-17T00:51:23.646Z,73.50
2023-03-17T00:53:51.255Z,66.00
2023-03-17T00:56:20.261Z,79.00
2023-03-17T00:58:48.746Z,80.00
2023-03-17T01:01:16.325Z,71.00
2023-03-17T01:03:43.737Z,100.75
2023-03-17T01:06:12.634Z,106.50
2023-03-17T01:08:40.812Z,107.75
2023-03-17T01:11:15.161Z,116.50
2023-03-17T01:13:42.543Z,116.00
2023-03-17T01:16:11.298Z,116.50
2023-03-17T01:18:39.367Z,101.50
2023-03-17T01:21:06.906Z,107.75
2023-03-17T01:23:34.312Z,94.50
2023-03-17T01:26:01.769Z,75.00
2023-03-17T01:28:29.108Z,80.00
2023-03-17T01:30:56.903Z,88.75
2023-03-17T01:33:26.636Z,80.75
2023-03-17T01:35:53.687Z,81.75
2023-03-17T01:38:20.992Z,70.25
2023-03-17T01:40:50.550Z,73.25
2023-03-17T01:43:19.829Z,83.25
2023-03-17T01:46:17.385Z,108.00
2023-03-17T01:48:59.093Z,86.00
2023-03-17T01:51:33.970Z,81.00
2023-03-17T01:54:05.011Z,80.50
2023-03-17T01:56:32.096Z,84.75
2023-03-17T01:59:03.538Z,68.75
2023-03-17T02:01:37.518Z,71.75
2023-03-17T02:04:05.360Z,66.25
2023-03-17T02:06:32.862Z,68.50
2023-03-17T02:09:00.278Z,78.25
2023-03-17T02:11:27.648Z,68.75
2023-03-17T02:13:55.112Z,75.50
2023-03-17T02:16:22.472Z,54.50
2023-03-17T02:18:49.634Z,72.25
2023-03-17T02:21:32.632Z,74.75
2023-03-17T02:24:03.033Z,66.25
2023-03-17T02:26:33.625Z,74.00
2023-03-17T02:29:00.958Z,76.00
2023-03-17T02:31:28.066Z,83.25
2023-03-17T02:33:56.349Z,86.25
2023-03-17T02:36:23.785Z,90.00
2023-03-17T02:38:52.381Z,96.00
2023-03-17T02:41:20.485Z,86.75
2023-03-17T02:43:48.195Z,111.00
2023-03-17T02:46:15.255Z,111.00
2023-03-17T02:48:42.995Z,103.75
2023-03-17T02:51:09.896Z,127.25
2023-03-17T02:53:37.232Z,119.75
2023-03-17T02:56:04.770Z,132.75
2023-03-17T02:58:32.198Z,135.00
2023-03-17T03:00:59.243Z,125.25
2023-03-17T03:03:38.644Z,96.25
2023-03-17T03:06:06.162Z,97.00
2023-03-17T03:12:46.933Z,100.00
2023-03-17T03:15:14.707Z,102.00
2023-03-17T03:22:01.623Z,99.25
2023-03-17T03:24:29.071Z,92.50
2023-03-17T03:26:56.052Z,91.00
2023-03-17T03:29:23.513Z,90.25
2023-03-17T03:31:51.151Z,79.25
2023-03-17T03:34:18.433Z,97.00
2023-03-17T03:36:45.568Z,93.50
2023-03-17T03:39:14.566Z,95.00
2023-03-17T03:41:42.957Z,103.50
2023-03-17T03:44:12.258Z,87.25
2023-03-17T03:46:39.504Z,94.75
2023-03-17T03:49:06.761Z,92.25
2023-03-17T03:51:33.779Z,92.00
2023-03-17T03:54:01.564Z,91.25
2023-03-17T03:56:28.636Z,90.75
2023-03-17T03:58:57.400Z,87.25
2023-03-17T04:01:24.811Z,90.00
2023-03-17T04:03:52.236Z,97.00
2023-03-17T04:06:19.512Z,68.00
2023-03-17T04:08:46.843Z,98.50
2023-03-17T04:11:13.753Z,92.50
2023-03-17T04:13:41.153Z,99.00
2023-03-17T04:16:08.490Z,95.00
2023-03-17T04:18:35.831Z,96.50
2023-03-17T04:21:03.019Z,103.00
2023-03-17T04:23:31.689Z,118.25
2023-03-17T04:25:59.168Z,110.75
2023-03-17T04:28:26.706Z,93.00
2023-03-17T04:30:53.695Z,105.00
2023-03-17T04:33:20.936Z,97.75
2023-03-17T04:35:48.407Z,108.00
2023-03-17T04:38:15.824Z,90.25
2023-03-17T04:40:43.072Z,93.25
2023-03-17T04:43:10.640Z,91.50
2023-03-17T04:45:37.839Z,83.75
2023-03-17T04:48:05.943Z,85.00
2023-03-17T04:50:33.577Z,94.25
2023-03-17T04:53:02.290Z,83.75
2023-03-17T04:55:29.741Z,78.25
2023-03-17T04:57:57.522Z,92.75
2023-03-17T05:00:25.627Z,79.75
2023-03-17T05:02:54.898Z,78.25
2023-03-17T05:05:22.176Z,13.75
2023-03-17T05:07:53.553Z,74.25
2023-03-17T05:10:21.202Z,72.25
2023-03-17T05:12:48.743Z,77.00
2023-03-17T05:15:16.050Z,80.50
2023-03-17T05:17:46.178Z,63.75
2023-03-17T05:20:13.857Z,73.75
2023-03-17T05:22:41.319Z,77.50
2023-03-17T05:25:08.762Z,85.25
2023-03-17T05:27:36.452Z,81.25
2023-03-17T05:30:04.594Z,97.00
2023-03-17T05:32:32.388Z,83.75
2023-03-17T05:34:59.600Z,93.00
2023-03-17T05:37:26.901Z,77.75
2023-03-17T05:39:54.273Z,87.50
2023-03-17T05:42:21.480Z,78.00
2023-03-17T05:44:49.027Z,95.25
2023-03-17T05:47:16.467Z,81.75
2023-03-17T05:49:43.603Z,87.25
2023-03-17T05:52:10.909Z,80.25
2023-03-17T05:54:38.039Z,83.50
2023-03-17T05:57:05.472Z,84.75
2023-03-17T05:59:32.542Z,55.75
2023-03-17T06:01:59.897Z,99.75
2023-03-17T06:04:26.917Z,86.00
2023-03-17T06:06:54.289Z,83.75
2023-03-17T06:09:21.237Z,79.50
2023-03-17T06:11:49.339Z,79.00
2023-03-17T06:14:16.524Z,80.25
2023-03-17T06:16:43.988Z,91.00
2023-03-17T06:19:11.189Z,84.00
2023-03-17T06:21:38.534Z,82.75
2023-03-17T06:24:05.960Z,81.25
2023-03-17T06:26:33.375Z,80.00
2023-03-17T06:29:00.608Z,87.00
2023-03-17T06:31:28.000Z,81.00
2023-03-17T06:33:55.077Z,64.50
2023-03-17T06:36:22.471Z,48.75
2023-03-17T06:38:49.653Z,52.50
2023-03-17T06:41:17.134Z,40.25
2023-03-17T06:43:44.313Z,58.75
2023-03-17T06:46:11.593Z,39.50
2023-03-17T06:48:38.741Z,37.00
2023-03-17T06:51:06.453Z,48.50
2023-03-17T06:53:33.366Z,38.50
2023-03-17T06:56:00.723Z,45.75
2023-03-17T06:58:28.057Z,50.50
2023-03-17T07:00:56.019Z,43.00
2023-03-17T07:03:24.208Z,50.75
2023-03-17T07:05:53.557Z,45.00
2023-03-17T07:08:20.947Z,52.75
2023-03-17T07:10:49.225Z,38.75
2023-03-17T07:13:16.155Z,44.00
2023-03-17T07:15:45.433Z,41.75
2023-03-17T07:18:12.877Z,31.25
2023-03-17T07:20:40.996Z,37.00
2023-03-17T07:23:11.490Z,32.00
2023-03-17T07:25:40.600Z,28.00
2023-03-17T07:28:08.523Z,29.75
2023-03-17T07:30:35.974Z,44.50
2023-03-17T07:33:04.297Z,42.50
2023-03-17T07:35:33.987Z,41.25
2023-03-17T07:38:01.281Z,42.50
2023-03-17T07:40:29.888Z,23.00
2023-03-17T07:42:56.903Z,32.50
2023-03-17T07:45:25.064Z,31.00
2023-03-17T07:47:52.792Z,26.75
2023-03-17T07:50:20.820Z,36.25
2023-03-17T07:52:47.831Z,31.00
2023-03-17T07:55:16.201Z,30.25
2023-03-17T07:57:43.506Z,33.25
2023-03-17T08:00:13.713Z,34.50
2023-03-17T08:02:41.252Z,27.75
2023-03-17T08:05:09.436Z,23.75
2023-03-17T08:07:40.272Z,30.75
2023-03-17T08:10:09.004Z,26.00
2023-03-17T17:11:03.321Z,27.50
2023-03-17T17:13:30.938Z,19.25
2023-03-17T17:15:58.108Z,18.25
2023-03-17T17:18:25.652Z,21.00
2023-03-17T17:20:54.183Z,18.00
2023-03-17T17:23:24.223Z,27.50
2023-03-17T17:25:51.579Z,56.25
2023-03-17T17:28:22.448Z,43.50
2023-03-17T17:30:51.118Z,24.50
2023-03-17T17:33:19.432Z,31.00
2023-03-17T17:35:47.934Z,18.00
2023-03-17T17:38:26.973Z,27.25
2023-03-17T17:40:55.685Z,22.75
2023-03-17T17:43:29.437Z,20.75
2023-03-17T17:46:02.891Z,22.00
2023-03-17T17:48:33.730Z,18.00
2023-03-17T17:51:05.808Z,19.00
2023-03-17T17:53:33.673Z,24.00
2023-03-17T17:56:00.705Z,18.25
2023-03-17T17:58:28.261Z,27.00
2023-03-17T18:00:57.350Z,23.75
2023-03-17T18:03:31.548Z,21.50
2023-03-17T18:05:59.397Z,24.75
2023-03-17T18:08:27.228Z,15.75
2023-03-17T18:10:56.008Z,23.75
2023-03-17T18:13:26.599Z,18.00
2023-03-17T18:15:53.805Z,25.50
2023-03-17T18:18:21.096Z,27.00
2023-03-17T18:20:48.511Z,35.25
2023-03-17T18:23:16.691Z,48.75
2023-03-17T18:25:43.780Z,57.50
2023-03-17T18:28:11.942Z,54.50
2023-03-17T18:30:39.147Z,47.00
2023-03-17T18:33:11.005Z,48.50
2023-03-17T18:35:38.695Z,58.25
2023-03-17T18:38:06.482Z,48.50
2023-03-17T18:40:34.120Z,58.75
2023-03-17T18:43:02.052Z,63.00
2023-03-17T18:45:29.314Z,63.00
2023-03-17T18:47:57.716Z,76.75
2023-03-17T18:50:25.516Z,73.00
2023-03-17T18:52:52.975Z,74.50
2023-03-17T18:55:20.183Z,66.00
2023-03-17T18:57:48.184Z,62.75
2023-03-17T19:00:17.496Z,63.50
2023-03-17T19:02:45.808Z,70.25
2023-03-17T19:05:13.396Z,63.25
2023-03-17T19:07:42.381Z,63.25
2023-03-17T19:10:11.097Z,80.50
2023-03-17T19:12:43.228Z,76.00
2023-03-17T19:15:12.697Z,59.25
2023-03-17T19:17:41.372Z,61.75
2023-03-17T19:20:10.263Z,49.00
2023-03-17T19:22:37.843Z,45.75
2023-03-17T19:25:08.185Z,56.50
2023-03-17T19:27:36.611Z,72.25
2023-03-17T19:30:04.142Z,69.25
2023-03-17T19:32:33.096Z,75.25
2023-03-17T19:35:00.456Z,83.25
2023-03-17T19:37:28.128Z,80.00
2023-03-17T19:39:55.700Z,80.25
2023-03-17T19:42:23.303Z,91.50
2023-03-17T19:44:50.855Z,84.25
2023-03-17T19:47:18.369Z,86.50
2023-03-17T19:49:46.082Z,87.50
2023-03-17T19:52:13.543Z,90.75
2023-03-17T19:54:46.052Z,103.25
2023-03-17T19:57:17.135Z,94.75
2023-03-17T19:59:44.282Z,102.75
2023-03-17T20:02:16.970Z,100.50
2023-03-17T20:04:44.730Z,101.50
2023-03-17T20:07:12.611Z,99.00
2023-03-17T20:09:40.312Z,87.25
2023-03-17T20:12:08.381Z,97.75
2023-03-17T20:14:36.153Z,102.75
2023-03-17T20:17:04.075Z,100.50
2023-03-17T20:19:31.801Z,99.25
2023-03-17T20:21:59.800Z,102.25
2023-03-17T20:24:28.879Z,104.50
2023-03-17T20:26:58.159Z,94.75
2023-03-17T20:29:26.705Z,99.75
2023-03-17T20:31:54.732Z,99.75
2023-03-17T20:34:23.044Z,98.50
2023-03-17T20:36:51.626Z,105.00
2023-03-17T20:39:20.054Z,101.25
2023-03-17T20:41:52.678Z,85.25
2023-03-17T20:44:21.296Z,90.50
2023-03-17T20:46:50.292Z,90.25
2023-03-17T20:49:18.291Z,94.50
2023-03-17T20:51:47.030Z,103.00
2023-03-17T20:54:14.695Z,97.25
2023-03-17T20:56:44.764Z,97.00
2023-03-17T20:59:13.671Z,102.50
2023-03-17T21:01:42.804Z,114.25
2023-03-17T21:04:12.704Z,105.50
2023-03-17T21:06:41.841Z,106.00
2023-03-17T21:09:10.163Z,97.50
2023-03-17T21:11:40.277Z,110.50
2023-03-17T21:14:09.351Z,107.50
2023-03-17T21:16:37.234Z,87.75
2023-03-17T21:19:08.628Z,97.00
2023-03-17T21:21:37.081Z,93.25
2023-03-17T21:24:35.429Z,106.75
2023-03-17T21:27:06.024Z,98.75
2023-03-17T21:29:34.867Z,94.00
2023-03-17T21:32:03.757Z,106.00
2023-03-17T21:34:32.549Z,89.50
2023-03-17T21:37:01.470Z,121.25
2023-03-17T21:39:29.701Z,123.50
2023-03-17T21:41:57.847Z,113.50
2023-03-17T21:44:25.093Z,109.50
2023-03-17T21:46:53.575Z,104.75
2023-03-17T21:49:22.238Z,103.75
2023-03-17T21:51:55.880Z,107.75
2023-03-17T21:54:27.204Z,103.00
2023-03-17T21:56:56.090Z,80.00
2023-03-17T21:59:26.364Z,106.75
2023-03-17T22:02:00.626Z,99.25
2023-03-17T22:04:28.855Z,95.00
2023-03-17T22:06:59.065Z,102.50
2023-03-17T22:09:27.030Z,95.75
2023-03-17T22:12:00.941Z,94.50
2023-03-17T22:14:31.096Z,90.00
2023-03-17T22:17:02.011Z,91.50
2023-03-17T22:19:30.052Z,99.00
2023-03-17T22:22:30.113Z,92.50
2023-03-17T22:24:57.517Z,97.00
2023-03-17T22:27:25.359Z,91.00
2023-03-17T22:29:52.735Z,97.75
2023-03-17T22:32:20.183Z,95.00
2023-03-17T22:34:47.219Z,85.50
2023-03-17T22:37:15.568Z,92.75
2023-03-17T22:39:42.912Z,90.00
2023-03-17T22:42:12.967Z,105.00
2023-03-17T22:44:41.061Z,92.00
2023-03-17T22:47:09.932Z,92.00
2023-03-17T22:49:37.231Z,98.25
2023-03-17T22:52:05.339Z,87.75
2023-03-17T22:54:32.669Z,95.75
2023-03-17T22:56:59.826Z,91.75
2023-03-17T22:59:26.992Z,96.50
